createdAt,value
2017-12-21T00:01:16.427Z,6.10
2017-12-21T00:03:44.701Z,6.00
2017-12-21T00:06:12.950Z,6.00
2017-12-21T00:08:41.980Z,6.10
2017-12-21T00:11:10.263Z,6.00
2017-12-21T00:13:38.530Z,6.00
2017-12-21T00:16:06.777Z,5.90
2017-12-21T00:18:35.800Z,5.90
2017-12-21T00:21:04.047Z,5.90
2017-12-21T00:23:32.310Z,6.00
2017-12-21T00:26:00.554Z,5.90
2017-12-21T00:28:28.827Z,5.90
2017-12-21T00:30:57.073Z,6.00
2017-12-21T00:33:25.418Z,6.00
2017-12-21T00:35:54.572Z,6.10
2017-12-21T00:38:23.600Z,6.10
2017-12-21T00:40:51.905Z,6.00
2017-12-21T00:43:20.278Z,6.10
2017-12-21T00:45:48.554Z,6.10
2017-12-21T00:48:16.847Z,6.10
2017-12-21T00:50:45.090Z,6.00
2017-12-21T00:53:13.336Z,6.10
2017-12-21T00:55:41.632Z,6.10
2017-12-21T00:58:09.893Z,6.10
2017-12-21T01:00:38.238Z,6.00
2017-12-21T01:03:06.522Z,6.00
2017-12-21T01:05:34.801Z,6.00
2017-12-21T01:08:03.050Z,6.00
2017-12-21T01:10:32.076Z,6.00
2017-12-21T01:13:00.323Z,6.00
2017-12-21T01:15:28.571Z,6.10
2017-12-21T01:17:56.833Z,6.00
2017-12-21T01:20:25.081Z,6.10
2017-12-21T01:22:54.108Z,6.10
2017-12-21T01:25:22.519Z,6.10
2017-12-21T01:27:50.765Z,6.10
2017-12-21T01:30:19.022Z,6.10
2017-12-21T01:32:48.029Z,6.10
2017-12-21T01:35:17.063Z,6.10
2017-12-21T01:37:45.308Z,6.10
2017-12-21T01:40:14.327Z,6.10
2017-12-21T01:42:42.621Z,6.10
2017-12-21T01:45:10.917Z,6.10
2017-12-21T01:47:39.183Z,6.20
2017-12-21T01:50:07.460Z,6.20
2017-12-21T01:52:35.724Z,6.20
2017-12-21T01:55:03.973Z,6.30
2017-12-21T01:57:32.231Z,6.30
2017-12-21T02:00:00.472Z,6.40
2017-12-21T02:02:28.774Z,6.40
2017-12-21T02:04:57.020Z,6.40
2017-12-21T02:07:25.285Z,6.40
2017-12-21T02:09:53.525Z,6.40
2017-12-21T02:12:21.826Z,6.40
2017-12-21T02:14:50.092Z,6.40
2017-12-21T02:17:18.345Z,6.40
2017-12-21T02:19:46.637Z,6.40
2017-12-21T02:22:14.890Z,6.40
2017-12-21T02:24:43.142Z,6.40
2017-12-21T02:27:11.421Z,6.40
2017-12-21T02:29:39.643Z,6.50
2017-12-21T02:32:07.906Z,6.50
2017-12-21T02:34:36.159Z,6.50
2017-12-21T02:37:05.211Z,6.40
2017-12-21T02:39:33.517Z,6.40
2017-12-21T02:42:01.795Z,6.50
2017-12-21T02:44:30.043Z,6.50
2017-12-21T02:46:58.354Z,6.40
2017-12-21T02:49:26.607Z,6.50
2017-12-21T02:51:54.911Z,6.40
2017-12-21T02:54:23.191Z,6.40
2017-12-21T02:56:51.448Z,6.50
2017-12-21T02:59:19.721Z,6.60
2017-12-21T03:01:47.971Z,6.60
2017-12-21T03:04:16.314Z,6.60
2017-12-21T03:06:44.715Z,6.60
2017-12-21T03:09:12.987Z,6.60
2017-12-21T03:11:41.247Z,6.60
2017-12-21T03:14:09.550Z,6.60
2017-12-21T03:16:37.803Z,6.60
2017-12-21T03:19:06.063Z,6.60
2017-12-21T03:21:34.314Z,6.50
2017-12-21T03:24:02.579Z,6.50
2017-12-21T03:26:30.938Z,6.40
2017-12-21T03:28:59.240Z,6.40
2017-12-21T03:31:27.490Z,6.40
2017-12-21T03:33:55.819Z,6.40
2017-12-21T03:36:24.062Z,6.40
2017-12-21T03:38:52.310Z,6.40
2017-12-21T03:41:21.338Z,6.40
2017-12-21T03:43:49.623Z,6.40
2017-12-21T03:46:18.740Z,6.40
2017-12-21T03:48:46.983Z,6.40
2017-12-21T03:51:15.296Z,6.40
2017-12-21T03:53:43.543Z,6.40
2017-12-21T03:56:11.843Z,6.40
2017-12-21T03:58:40.225Z,6.50
2017-12-21T04:01:08.530Z,6.40
2017-12-21T04:03:36.779Z,6.40
2017-12-21T04:06:05.049Z,6.40
2017-12-21T04:08:33.303Z,6.40
2017-12-21T04:11:02.375Z,6.40
2017-12-21T04:13:30.628Z,6.40
2017-12-21T04:15:58.881Z,6.30
2017-12-21T04:18:27.193Z,6.30
2017-12-21T04:20:55.453Z,6.30
2017-12-21T04:23:23.762Z,6.30
2017-12-21T04:25:52.047Z,6.40
2017-12-21T04:28:20.326Z,6.40
2017-12-21T04:30:48.622Z,6.40
2017-12-21T04:33:16.929Z,6.40
2017-12-21T04:35:45.199Z,6.30
2017-12-21T04:38:13.472Z,6.30
2017-12-21T04:40:41.719Z,6.40
2017-12-21T04:43:10.017Z,6.40
2017-12-21T04:45:38.262Z,6.40
2017-12-21T04:48:06.522Z,6.40
2017-12-21T04:50:34.776Z,6.40
2017-12-21T04:53:03.328Z,6.40
2017-12-21T04:55:31.605Z,6.40
2017-12-21T04:58:00.620Z,6.40
2017-12-21T05:00:28.971Z,6.40
2017-12-21T05:02:58.008Z,6.40
2017-12-21T05:05:26.303Z,6.40
2017-12-21T05:07:54.683Z,6.40
2017-12-21T05:10:22.923Z,6.40
2017-12-21T05:12:51.243Z,6.30
2017-12-21T05:15:20.162Z,6.40
2017-12-21T05:17:48.430Z,6.40
2017-12-21T05:20:16.675Z,6.40
2017-12-21T05:22:44.970Z,6.40
2017-12-21T05:25:13.254Z,6.40
2017-12-21T05:27:41.534Z,6.40
2017-12-21T05:30:09.818Z,6.30
2017-12-21T05:32:38.075Z,6.40
2017-12-21T05:35:06.385Z,6.40
2017-12-21T05:37:34.636Z,6.40
2017-12-21T05:40:02.909Z,6.40
2017-12-21T05:42:32.320Z,6.40
2017-12-21T05:45:00.595Z,6.40
2017-12-21T05:47:29.633Z,6.40
2017-12-21T05:49:57.915Z,6.40
2017-12-21T05:52:26.168Z,6.40
2017-12-21T05:54:55.244Z,6.40
2017-12-21T05:57:24.538Z,6.30
2017-12-21T05:59:53.230Z,6.30
2017-12-21T06:02:21.809Z,6.30
2017-12-21T06:04:50.408Z,6.40
2017-12-21T06:07:19.714Z,6.40
2017-12-21T06:09:48.200Z,6.40
2017-12-21T06:12:16.790Z,6.40
2017-12-21T06:14:47.185Z,6.40
2017-12-21T06:17:17.156Z,6.40
2017-12-21T06:19:45.886Z,6.40
2017-12-21T06:22:15.752Z,6.50
2017-12-21T06:24:44.341Z,6.40
2017-12-21T06:27:12.684Z,6.40
2017-12-21T06:29:41.314Z,6.40
2017-12-21T06:32:09.775Z,6.40
2017-12-21T06:34:38.054Z,6.40
2017-12-21T06:37:06.322Z,6.40
2017-12-21T06:39:35.443Z,6.50
2017-12-21T06:42:03.706Z,6.50
2017-12-21T06:44:31.959Z,6.50
2017-12-21T06:47:00.971Z,6.50
2017-12-21T06:49:29.266Z,6.50
2017-12-21T06:51:57.659Z,6.60
2017-12-21T06:54:25.947Z,6.60
2017-12-21T06:56:54.235Z,6.60
2017-12-21T06:59:22.503Z,6.60
2017-12-21T07:01:50.749Z,6.60
2017-12-21T07:04:20.917Z,6.60
2017-12-21T07:06:49.161Z,6.60
2017-12-21T07:09:18.195Z,6.60
2017-12-21T07:11:46.456Z,6.60
2017-12-21T07:14:15.005Z,6.60
2017-12-21T07:16:44.198Z,6.70
2017-12-21T07:19:13.438Z,6.60
2017-12-21T07:21:41.726Z,6.50
2017-12-21T07:24:11.096Z,6.60
2017-12-21T07:26:39.344Z,6.60
2017-12-21T07:29:07.639Z,6.70
2017-12-21T07:31:35.894Z,6.60
2017-12-21T07:34:04.172Z,6.60
2017-12-21T07:36:32.470Z,6.60
2017-12-21T07:39:00.735Z,6.60
2017-12-21T07:41:29.375Z,6.60
2017-12-21T07:43:57.719Z,6.70
2017-12-21T07:46:26.041Z,6.70
2017-12-21T07:48:55.809Z,6.60
2017-12-21T07:51:24.073Z,6.60
2017-12-21T07:53:52.358Z,6.60
2017-12-21T07:56:20.664Z,6.60
2017-12-21T07:58:48.905Z,6.60
2017-12-21T08:01:17.939Z,6.60
2017-12-21T08:03:46.256Z,6.60
2017-12-21T08:06:14.546Z,6.60
2017-12-21T08:08:43.612Z,6.60
2017-12-21T08:11:11.883Z,6.50
2017-12-21T08:13:41.812Z,6.60
2017-12-21T08:16:10.074Z,6.60
2017-12-21T08:18:38.387Z,6.60
2017-12-21T08:21:06.765Z,6.60
2017-12-21T08:23:35.059Z,6.70
2017-12-21T08:26:03.303Z,6.70
2017-12-21T08:28:31.593Z,6.70
2017-12-21T08:30:59.878Z,6.80
2017-12-21T08:33:28.444Z,6.70
2017-12-21T08:35:56.764Z,6.70
2017-12-21T08:38:25.836Z,6.70
2017-12-21T08:40:54.293Z,6.60
2017-12-21T08:43:26.108Z,6.60
2017-12-21T08:45:54.499Z,6.60
2017-12-21T08:48:22.763Z,6.60
2017-12-21T08:50:51.184Z,6.60
2017-12-21T08:53:21.102Z,6.70
2017-12-21T08:55:51.080Z,6.70
2017-12-21T08:58:19.565Z,6.70
2017-12-21T09:00:48.011Z,6.70
2017-12-21T09:03:17.208Z,6.70
2017-12-21T09:05:45.687Z,6.80
2017-12-21T09:08:14.160Z,6.80
2017-12-21T09:10:42.426Z,6.80
2017-12-21T09:13:10.684Z,6.80
2017-12-21T09:15:38.981Z,6.80
2017-12-21T09:18:07.232Z,6.80
2017-12-21T09:20:35.498Z,6.80
2017-12-21T09:23:04.540Z,7.00
2017-12-21T09:25:33.207Z,7.00
2017-12-21T09:28:01.462Z,7.00
2017-12-21T09:30:30.490Z,7.00
2017-12-21T09:32:58.738Z,7.00
2017-12-21T09:35:27.077Z,6.90
2017-12-21T09:37:55.319Z,7.00
2017-12-21T09:40:23.643Z,7.10
2017-12-21T09:42:52.086Z,7.20
2017-12-21T09:45:20.668Z,7.10
2017-12-21T09:47:49.688Z,7.20
2017-12-21T09:50:17.987Z,7.20
2017-12-21T09:52:46.288Z,7.30
2017-12-21T09:55:14.704Z,7.40
2017-12-21T09:57:43.118Z,7.40
2017-12-21T10:00:11.474Z,7.40
2017-12-21T10:02:40.865Z,7.40
2017-12-21T10:05:09.441Z,7.40
2017-12-21T10:07:38.862Z,7.40
2017-12-21T10:10:08.029Z,7.40
2017-12-21T10:12:36.291Z,7.40
2017-12-21T10:15:04.550Z,7.40
2017-12-21T10:17:33.579Z,7.40
2017-12-21T10:20:01.871Z,7.40
2017-12-21T10:22:30.147Z,7.40
2017-12-21T10:24:58.411Z,7.50
2017-12-21T10:27:26.667Z,7.50
2017-12-21T10:29:55.714Z,7.40
2017-12-21T10:32:23.986Z,7.40
2017-12-21T10:34:52.306Z,7.30
2017-12-21T10:37:20.550Z,7.30
2017-12-21T10:39:48.817Z,7.40
2017-12-21T10:42:17.094Z,7.40
2017-12-21T10:44:45.351Z,7.30
2017-12-21T10:47:14.506Z,7.30
2017-12-21T10:49:42.751Z,7.30
2017-12-21T10:52:11.023Z,7.30
2017-12-21T10:54:40.051Z,7.40
2017-12-21T10:57:08.340Z,7.40
2017-12-21T10:59:36.630Z,7.40
2017-12-21T11:02:04.898Z,7.40
2017-12-21T11:04:33.162Z,7.40
2017-12-21T11:07:01.467Z,7.40
2017-12-21T11:09:29.749Z,7.40
2017-12-21T11:11:58.032Z,7.50
2017-12-21T11:14:26.348Z,7.50
2017-12-21T11:16:54.657Z,7.50
2017-12-21T11:19:24.430Z,7.40
2017-12-21T11:21:52.658Z,7.40
2017-12-21T11:24:20.988Z,7.50
2017-12-21T11:26:49.258Z,7.50
2017-12-21T11:29:17.531Z,7.50
2017-12-21T11:31:45.786Z,7.50
2017-12-21T11:34:14.055Z,7.60
2017-12-21T11:36:42.314Z,7.50
2017-12-21T11:39:10.580Z,7.50
2017-12-21T11:41:39.038Z,7.50
2017-12-21T11:44:07.295Z,7.50
2017-12-21T11:46:35.542Z,7.40
2017-12-21T11:49:03.875Z,7.40
2017-12-21T11:51:32.126Z,7.50
2017-12-21T11:54:00.643Z,7.50
2017-12-21T11:56:28.908Z,7.60
2017-12-21T11:58:57.180Z,7.50
2017-12-21T12:01:25.445Z,7.60
2017-12-21T12:03:53.725Z,7.60
2017-12-21T12:06:22.783Z,7.60
2017-12-21T12:08:51.066Z,7.60
2017-12-21T12:11:19.314Z,7.60
2017-12-21T12:13:47.585Z,7.60
2017-12-21T12:16:15.825Z,7.60
2017-12-21T12:18:44.881Z,7.70
2017-12-21T12:21:13.133Z,7.70
2017-12-21T12:23:42.460Z,7.70
2017-12-21T12:26:16.575Z,7.70
2017-12-21T12:28:44.833Z,7.70
2017-12-21T12:31:13.861Z,7.90
2017-12-21T12:33:42.163Z,7.90
2017-12-21T12:36:10.456Z,7.90
2017-12-21T12:38:38.705Z,7.90
2017-12-21T12:41:06.969Z,7.90
2017-12-21T12:43:36.009Z,8.00
2017-12-21T12:46:04.287Z,8.00
2017-12-21T12:48:32.594Z,8.00
2017-12-21T12:51:00.860Z,8.00
2017-12-21T12:53:29.124Z,8.00
2017-12-21T12:55:57.383Z,8.00
2017-12-21T12:58:25.620Z,8.00
2017-12-21T13:00:54.697Z,8.00
2017-12-21T13:03:22.968Z,8.00
2017-12-21T13:05:51.268Z,8.10
2017-12-21T13:08:19.470Z,8.10
2017-12-21T13:10:47.731Z,8.10
2017-12-21T13:13:15.991Z,8.00
2017-12-21T13:15:44.270Z,8.00
2017-12-21T13:18:12.501Z,8.10
2017-12-21T13:20:41.544Z,8.20
2017-12-21T13:23:09.834Z,8.20
2017-12-21T13:25:38.111Z,8.20
2017-12-21T13:28:06.398Z,8.20
2017-12-21T13:30:34.647Z,8.30
2017-12-21T13:33:02.889Z,8.30
2017-12-21T13:35:31.180Z,8.30
2017-12-21T13:37:59.512Z,8.30
2017-12-21T13:40:27.764Z,8.40
2017-12-21T13:42:56.782Z,8.40
2017-12-21T13:45:25.024Z,8.40
2017-12-21T13:47:53.361Z,8.40
2017-12-21T13:50:21.632Z,8.40
2017-12-21T13:52:49.918Z,8.40
2017-12-21T13:55:18.159Z,8.40
2017-12-21T13:57:47.203Z,8.50
2017-12-21T14:00:15.481Z,8.50
2017-12-21T14:02:43.749Z,8.50
2017-12-21T14:05:12.081Z,8.50
2017-12-21T14:07:41.113Z,8.50
2017-12-21T14:10:09.355Z,8.50
2017-12-21T14:12:37.810Z,8.50
2017-12-21T14:15:06.046Z,8.50
2017-12-21T14:17:34.302Z,8.40
2017-12-21T14:20:02.656Z,8.50
2017-12-21T14:22:32.463Z,8.40
2017-12-21T14:25:00.783Z,8.40
2017-12-21T14:27:29.060Z,8.40
2017-12-21T14:29:57.693Z,8.40
2017-12-21T14:32:25.991Z,8.40
2017-12-21T14:34:54.239Z,8.30
2017-12-21T14:37:22.504Z,8.40
2017-12-21T14:39:51.551Z,8.30
2017-12-21T14:42:19.810Z,8.30
2017-12-21T14:44:48.223Z,8.20
2017-12-21T14:47:16.524Z,8.30
2017-12-21T14:49:44.788Z,8.20
2017-12-21T14:52:13.112Z,8.20
2017-12-21T14:54:41.321Z,8.20
2017-12-21T14:57:09.566Z,8.20
2017-12-21T14:59:37.823Z,8.10
2017-12-21T15:02:06.068Z,8.20
2017-12-21T15:04:34.321Z,8.20
2017-12-21T15:07:03.344Z,8.20
2017-12-21T15:09:31.615Z,8.20
2017-12-21T15:12:00.623Z,8.30
2017-12-21T15:14:28.884Z,8.30
2017-12-21T15:16:58.127Z,8.30
2017-12-21T15:19:26.391Z,8.30
2017-12-21T15:21:54.690Z,8.40
2017-12-21T15:24:22.962Z,8.50
2017-12-21T15:26:51.204Z,8.50
2017-12-21T15:29:20.251Z,8.40
2017-12-21T15:31:48.541Z,8.40
2017-12-21T15:34:16.802Z,8.40
2017-12-21T15:36:45.112Z,8.40
2017-12-21T15:39:13.371Z,8.50
2017-12-21T15:41:41.630Z,8.50
2017-12-21T15:44:09.888Z,8.50
2017-12-21T15:46:38.936Z,8.50
2017-12-21T15:49:07.198Z,8.50
2017-12-21T15:51:35.506Z,8.40
2017-12-21T15:54:03.773Z,8.40
2017-12-21T15:56:32.160Z,8.40
2017-12-21T15:59:00.412Z,8.40
2017-12-21T16:01:29.440Z,8.40
2017-12-21T16:03:57.716Z,8.50
2017-12-21T16:06:25.982Z,8.50
2017-12-21T16:08:55.199Z,8.50
2017-12-21T16:11:23.473Z,8.50
2017-12-21T16:13:51.706Z,8.50
2017-12-21T16:16:19.974Z,8.60
2017-12-21T16:18:48.242Z,8.60
2017-12-21T16:21:16.540Z,8.60
2017-12-21T16:23:44.913Z,8.70
2017-12-21T16:26:13.173Z,8.60
2017-12-21T16:28:41.461Z,8.60
2017-12-21T16:31:09.749Z,8.60
2017-12-21T16:33:38.004Z,8.60
2017-12-21T16:36:06.411Z,8.60
2017-12-21T16:38:34.827Z,8.50
2017-12-21T16:41:03.510Z,8.40
2017-12-21T16:43:31.769Z,8.30
2017-12-21T16:46:00.046Z,8.40
2017-12-21T16:48:28.296Z,8.30
2017-12-21T16:50:56.605Z,8.40
2017-12-21T16:53:24.851Z,8.30
2017-12-21T16:55:53.115Z,8.30
2017-12-21T16:58:22.155Z,8.30
2017-12-21T17:00:50.563Z,8.30
2017-12-21T17:03:18.811Z,8.30
2017-12-21T17:05:47.074Z,8.30
2017-12-21T17:08:16.106Z,8.40
2017-12-21T17:10:44.351Z,8.40
2017-12-21T17:13:13.403Z,8.50
2017-12-21T17:15:41.646Z,8.50
2017-12-21T17:18:09.916Z,8.50
2017-12-21T17:20:38.917Z,8.50
2017-12-21T17:23:07.252Z,8.50
2017-12-21T17:25:35.506Z,8.50
2017-12-21T17:28:03.914Z,8.40
2017-12-21T17:30:32.149Z,8.40
2017-12-21T17:33:00.468Z,8.50
2017-12-21T17:35:28.722Z,8.50
2017-12-21T17:37:57.026Z,8.50
2017-12-21T17:40:25.284Z,8.60
2017-12-21T17:42:53.554Z,8.60
2017-12-21T17:45:21.892Z,8.60
2017-12-21T17:47:50.257Z,8.60
2017-12-21T17:50:18.507Z,8.60
2017-12-21T17:52:46.765Z,8.60
2017-12-21T17:55:15.778Z,8.50
2017-12-21T17:57:44.123Z,8.50
2017-12-21T18:00:13.134Z,8.60
2017-12-21T18:02:42.280Z,8.60
2017-12-21T18:05:10.544Z,8.50
2017-12-21T18:07:38.904Z,8.50
2017-12-21T18:10:07.701Z,8.40
2017-12-21T18:12:36.843Z,8.40
2017-12-21T18:15:05.142Z,8.40
2017-12-21T18:17:33.422Z,8.40
2017-12-21T18:20:01.695Z,8.40
2017-12-21T18:22:29.954Z,8.40
2017-12-21T18:24:59.035Z,8.40
2017-12-21T18:27:28.106Z,8.40
2017-12-21T18:29:56.375Z,8.50
2017-12-21T18:32:24.634Z,8.60
2017-12-21T18:34:52.914Z,8.60
2017-12-21T18:37:21.167Z,8.50
2017-12-21T18:39:50.311Z,8.50
2017-12-21T18:42:19.263Z,8.50
2017-12-21T18:44:47.718Z,8.50
2017-12-21T18:47:16.777Z,8.40
2017-12-21T18:49:45.076Z,8.40
2017-12-21T18:52:13.339Z,8.40
2017-12-21T18:54:41.604Z,8.40
2017-12-21T18:57:09.923Z,8.40
2017-12-21T18:59:38.204Z,8.50
2017-12-21T19:02:06.454Z,8.50
2017-12-21T19:04:34.730Z,8.50
2017-12-21T19:07:03.029Z,8.50
2017-12-21T19:09:31.329Z,8.50
2017-12-21T19:11:59.597Z,8.50
2017-12-21T19:14:27.875Z,8.50
2017-12-21T19:16:56.275Z,8.40
2017-12-21T19:19:24.580Z,8.50
2017-12-21T19:21:54.366Z,8.60
2017-12-21T19:24:22.630Z,8.60
2017-12-21T19:26:50.909Z,8.60
2017-12-21T19:29:19.168Z,8.50
2017-12-21T19:31:48.300Z,8.30
2017-12-21T19:34:16.549Z,8.30
2017-12-21T19:36:45.668Z,8.10
2017-12-21T19:39:13.899Z,8.10
2017-12-21T19:41:42.934Z,7.90
2017-12-21T19:44:11.239Z,7.90
2017-12-21T19:46:39.527Z,7.90
2017-12-21T19:49:07.773Z,7.90
2017-12-21T19:51:36.043Z,7.80
2017-12-21T19:54:05.062Z,7.80
2017-12-21T19:56:33.344Z,7.80
2017-12-21T19:59:01.593Z,7.80
2017-12-21T20:01:29.865Z,7.80
2017-12-21T20:03:58.215Z,7.90
2017-12-21T20:06:26.484Z,7.90
2017-12-21T20:08:54.741Z,7.80
2017-12-21T20:11:23.780Z,8.00
2017-12-21T20:13:52.144Z,8.00
2017-12-21T20:16:20.422Z,8.20
2017-12-21T20:18:48.750Z,8.30
2017-12-21T20:21:17.119Z,8.30
2017-12-21T20:23:45.359Z,8.40
2017-12-21T20:26:13.782Z,8.30
2017-12-21T20:28:42.055Z,8.30
2017-12-21T20:31:10.303Z,8.30
2017-12-21T20:33:38.602Z,8.40
2017-12-21T20:36:06.868Z,8.40
2017-12-21T20:38:35.137Z,8.40
2017-12-21T20:41:04.170Z,8.40
2017-12-21T20:43:32.444Z,8.50
2017-12-21T20:46:00.702Z,8.40
2017-12-21T20:48:29.024Z,8.40
2017-12-21T20:50:57.327Z,8.40
2017-12-21T20:53:25.614Z,8.40
2017-12-21T20:55:53.894Z,8.30
2017-12-21T20:58:23.019Z,8.40
2017-12-21T21:00:51.279Z,8.30
2017-12-21T21:03:20.316Z,8.30
2017-12-21T21:05:48.557Z,8.40
2017-12-21T21:08:18.070Z,8.40
2017-12-21T21:10:47.105Z,8.20
2017-12-21T21:13:15.390Z,8.20
2017-12-21T21:15:43.658Z,8.30
2017-12-21T21:18:11.958Z,8.20
2017-12-21T21:20:40.215Z,8.10
2017-12-21T21:23:08.518Z,8.20
2017-12-21T21:25:36.775Z,8.20
2017-12-21T21:28:05.042Z,8.20
2017-12-21T21:30:34.082Z,8.10
2017-12-21T21:33:02.355Z,8.10
2017-12-21T21:35:30.641Z,8.20
2017-12-21T21:37:58.908Z,8.20
2017-12-21T21:40:27.168Z,8.20
2017-12-21T21:42:56.189Z,8.20
2017-12-21T21:45:24.483Z,8.20
2017-12-21T21:47:52.764Z,8.20
2017-12-21T21:50:21.035Z,8.20
2017-12-21T21:52:49.288Z,8.20
2017-12-21T21:55:18.343Z,8.20
2017-12-21T21:57:46.648Z,8.20
2017-12-21T22:00:14.890Z,8.30
2017-12-21T22:02:43.148Z,8.20
2017-12-21T22:05:12.188Z,8.00
2017-12-21T22:07:40.454Z,7.90
2017-12-21T22:10:08.752Z,7.90
2017-12-21T22:12:37.026Z,7.80
2017-12-21T22:15:05.276Z,7.80
2017-12-21T22:17:33.571Z,7.70
2017-12-21T22:20:01.858Z,7.70
2017-12-21T22:22:30.098Z,7.60
2017-12-21T22:24:58.375Z,7.60
2017-12-21T22:27:27.392Z,7.60
2017-12-21T22:29:55.653Z,7.60
2017-12-21T22:32:24.665Z,7.70
2017-12-21T22:34:52.934Z,7.60
2017-12-21T22:37:21.976Z,7.50
2017-12-21T22:39:50.241Z,7.50
2017-12-21T22:42:18.492Z,7.50
2017-12-21T22:44:47.603Z,7.50
2017-12-21T22:47:15.872Z,7.50
2017-12-21T22:49:44.879Z,7.60
2017-12-21T22:52:13.150Z,7.60
2017-12-21T22:54:42.176Z,7.70
2017-12-21T22:57:10.448Z,7.70
2017-12-21T22:59:38.914Z,7.70
2017-12-21T23:02:07.179Z,7.70
2017-12-21T23:04:35.443Z,7.70
2017-12-21T23:07:03.712Z,7.70
2017-12-21T23:09:31.966Z,7.70
2017-12-21T23:12:00.239Z,7.60
2017-12-21T23:14:28.546Z,7.70
2017-12-21T23:16:56.814Z,7.70
2017-12-21T23:19:25.068Z,7.60
2017-12-21T23:21:54.106Z,7.60
2017-12-21T23:24:22.387Z,7.60
2017-12-21T23:26:50.649Z,7.80
2017-12-21T23:29:18.900Z,7.80
2017-12-21T23:31:47.933Z,7.80
2017-12-21T23:34:17.068Z,7.80
2017-12-21T23:36:45.343Z,7.90
2017-12-21T23:39:13.608Z,7.90
2017-12-21T23:41:41.878Z,8.00
2017-12-21T23:44:10.128Z,8.00
2017-12-21T23:46:39.163Z,8.10
2017-12-21T23:49:07.450Z,8.10
2017-12-21T23:51:35.702Z,8.00
2017-12-21T23:54:03.971Z,8.00
2017-12-21T23:56:32.234Z,8.00
2017-12-21T23:59:01.272Z,8.20
